Time;durP1;ratioP1;P1;durP2;ratioP2;P2;SDS_P1;SDS_P2;PMS_P1;PMS_P2;Temp;Humidity;BMP_temperature;BMP_pressure;BME280_temperature;BME280_humidity;BME280_pressure;Samples;Min_cycle;Max_cycle;Signal;HPM_P1;HPM_P2
2023/09/16 00:00:21;;;;;;;;;;;;;;;21.89;29.57;98253.78;5035954;28;900;-77
2023/09/16 00:02:48;;;;;;;;;;;;;;;22.12;29.27;98258.53;5034696;28;1914;-77
2023/09/16 00:05:13;;;;;;;;;;;;;;;22.26;28.93;98253.28;5034584;28;856;-77
2023/09/16 00:07:39;;;;;;;;;;;;;;;21.92;29.22;98261.44;5035845;28;985;-78
2023/09/16 00:10:04;;;;;;;;;;;;;;;22.04;29.22;98257.88;5035135;28;921;-77
2023/09/16 00:12:30;;;;;;;;;;;;;;;21.99;29.26;98255.56;5034823;28;1049;-77
2023/09/16 00:14:55;;;;;;;;;;;;;;;21.94;29.27;98256.09;5034576;28;1156;-77
2023/09/16 00:17:21;;;;;;;;;;;;;;;21.94;29.56;98250.44;5035909;28;926;-77
2023/09/16 00:19:47;;;;;;;;;;;;;;;21.72;29.97;98253.78;5034568;28;1100;-77
2023/09/16 00:22:13;;;;;;;;;;;;;;;21.89;29.57;98245.28;5018241;28;1910;-77
2023/09/16 00:24:40;;;;;;;;;;;;;;;22.07;28.95;98251.31;5035704;28;974;-77
2023/09/16 00:27:06;;;;;;;;;;;;;;;21.81;29.70;98251.16;5018138;28;1435;-77
2023/09/16 00:29:32;;;;;;;;;;;;;;;21.94;29.09;98251.22;5017990;28;1186;-77
2023/09/16 00:31:58;;;;;;;;;;;;;;;22.03;29.22;98251.41;4984465;28;1056;-76
2023/09/16 00:34:23;;;;;;;;;;;;;;;21.83;29.45;98243.00;5035873;28;1040;-78
2023/09/16 00:36:49;;;;;;;;;;;;;;;21.64;29.67;98258.00;5016970;28;1299;-77
2023/09/16 00:39:15;;;;;;;;;;;;;;;21.77;29.54;98252.47;5017690;28;890;-78
2023/09/16 00:41:41;;;;;;;;;;;;;;;21.74;29.80;98251.28;5018031;28;1976;-77
2023/09/16 00:44:06;;;;;;;;;;;;;;;21.93;29.23;98246.00;5001720;28;1130;-77
2023/09/16 00:46:32;;;;;;;;;;;;;;;21.91;29.23;98243.59;5034388;28;1216;-77
2023/09/16 00:48:57;;;;;;;;;;;;;;;21.85;29.58;98251.03;5034257;28;1276;-77
2023/09/16 00:51:23;;;;;;;;;;;;;;;21.74;29.84;98256.94;5037384;28;887;-78
2023/09/16 00:53:49;;;;;;;;;;;;;;;21.90;29.54;98256.19;5021651;28;1225;-77
2023/09/16 00:56:14;;;;;;;;;;;;;;;21.85;29.41;98251.84;5038018;28;1119;-77
2023/09/16 00:58:41;;;;;;;;;;;;;;;21.96;29.21;98250.78;5037745;28;929;-77
2023/09/16 01:01:07;;;;;;;;;;;;;;;21.84;29.27;98261.56;5021462;28;1975;-77
2023/09/16 01:03:35;;;;;;;;;;;;;;;22.00;29.40;98257.16;5021554;28;1568;-77
2023/09/16 01:06:02;;;;;;;;;;;;;;;22.10;29.16;98262.59;5005430;28;1170;-77
2023/09/16 01:08:27;;;;;;;;;;;;;;;21.93;29.23;98260.97;5021039;28;947;-77
2023/09/16 01:10:53;;;;;;;;;;;;;;;21.84;29.50;98267.25;5000191;28;1628;-77
2023/09/16 01:13:18;;;;;;;;;;;;;;;21.67;29.70;98262.00;4983601;28;1488;-77
2023/09/16 01:15:48;;;;;;;;;;;;;;;21.85;29.45;98268.81;5016803;28;979;-77
2023/09/16 01:18:14;;;;;;;;;;;;;;;21.96;29.19;98273.44;5000117;28;1006;-77
2023/09/16 01:20:40;;;;;;;;;;;;;;;22.25;28.83;98268.72;5000151;28;1052;-78
2023/09/16 01:23:06;;;;;;;;;;;;;;;22.23;28.68;98274.03;4996836;28;1910;-77
2023/09/16 01:25:31;;;;;;;;;;;;;;;21.91;29.30;98271.13;4980401;28;985;-77
2023/09/16 01:27:57;;;;;;;;;;;;;;;21.83;29.51;98276.97;4996875;28;929;-77
2023/09/16 01:30:24;;;;;;;;;;;;;;;22.05;28.97;98276.47;4996807;28;950;-77
2023/09/16 01:33:22;;;;;;;;;;;;;;;22.03;29.16;98278.97;4996854;28;1080;-78
2023/09/16 01:35:47;;;;;;;;;;;;;;;21.76;29.28;98280.00;4903832;29;968;-76
2023/09/16 01:38:14;;;;;;;;;;;;;;;21.77;29.38;98283.63;4919485;29;1115;-76
2023/09/16 01:40:40;;;;;;;;;;;;;;;21.77;29.59;98284.41;4919788;29;1006;-76
2023/09/16 01:43:07;;;;;;;;;;;;;;;21.72;29.72;98282.09;4938188;29;1975;-77
2023/09/16 01:45:42;;;;;;;;;;;;;;;21.81;29.13;98285.13;4938520;29;1133;-77
2023/09/16 01:48:07;;;;;;;;;;;;;;;22.05;28.84;98287.81;4938178;29;986;-78
2023/09/16 01:50:33;;;;;;;;;;;;;;;21.92;29.01;98289.75;4938266;29;1029;-77
2023/09/16 01:52:58;;;;;;;;;;;;;;;21.90;29.36;98286.53;4939847;28;1212;-77
2023/09/16 01:55:24;;;;;;;;;;;;;;;21.91;29.38;98288.94;4976798;28;990;-77
2023/09/16 01:57:49;;;;;;;;;;;;;;;21.82;29.44;98285.94;4976923;28;982;-78
2023/09/16 02:00:15;;;;;;;;;;;;;;;21.93;29.04;98282.84;4976475;28;1127;-77
2023/09/16 02:02:40;;;;;;;;;;;;;;;21.58;29.54;98279.56;4960058;28;1911;-77
2023/09/16 02:05:06;;;;;;;;;;;;;;;21.86;29.02;98289.44;4976276;28;955;-77
2023/09/16 02:07:32;;;;;;;;;;;;;;;21.70;29.49;98293.03;4976214;28;1574;-77
2023/09/16 02:09:58;;;;;;;;;;;;;;;21.78;29.29;98297.34;4976500;28;1147;-77
2023/09/16 02:12:23;;;;;;;;;;;;;;;22.01;28.91;98292.75;5047018;28;1627;-77
2023/09/16 02:14:51;;;;;;;;;;;;;;;22.05;28.81;98290.63;5020695;28;1218;-77
2023/09/16 02:17:17;;;;;;;;;;;;;;;21.92;29.29;98290.56;5015302;28;1128;-77
2023/09/16 02:19:43;;;;;;;;;;;;;;;21.84;29.19;98289.91;4999107;28;1251;-77
2023/09/16 02:22:09;;;;;;;;;;;;;;;21.96;29.00;98301.78;5015336;28;1989;-77
2023/09/16 02:24:34;;;;;;;;;;;;;;;21.97;29.17;98304.19;5015466;28;994;-77
2023/09/16 02:27:00;;;;;;;;;;;;;;;21.78;29.48;98303.00;4998869;28;1237;-77
2023/09/16 02:29:25;;;;;;;;;;;;;;;21.83;29.67;98299.66;4998914;28;1472;-77
2023/09/16 02:31:51;;;;;;;;;;;;;;;21.88;29.67;98303.19;5015370;28;1082;-77
2023/09/16 02:34:16;;;;;;;;;;;;;;;21.99;29.06;98309.41;5015273;28;1050;-77
2023/09/16 02:36:42;;;;;;;;;;;;;;;21.95;29.41;98305.84;4998418;28;1269;-77
2023/09/16 02:39:07;;;;;;;;;;;;;;;21.79;29.39;98303.78;5015169;28;892;-77
2023/09/16 02:41:34;;;;;;;;;;;;;;;22.07;29.02;98302.31;4982524;28;1911;-78
2023/09/16 02:44:00;;;;;;;;;;;;;;;22.10;29.09;98312.78;5015113;28;1009;-77
2023/09/16 02:46:25;;;;;;;;;;;;;;;22.10;28.98;98319.28;5014931;28;1055;-77
2023/09/16 02:48:52;;;;;;;;;;;;;;;21.98;29.37;98317.13;5025553;28;1588;-78
2023/09/16 02:51:17;;;;;;;;;;;;;;;21.79;29.65;98315.91;5036882;28;862;-78
2023/09/16 02:53:43;;;;;;;;;;;;;;;21.96;29.14;98324.44;4997991;28;1512;-77
2023/09/16 02:56:09;;;;;;;;;;;;;;;22.03;29.03;98318.63;4981683;28;1097;-78
2023/09/16 02:58:35;;;;;;;;;;;;;;;22.05;28.97;98325.44;4997866;28;1246;-77
2023/09/16 03:01:08;;;;;;;;;;;;;;;21.65;29.44;98321.88;4981866;28;1148;-78
2023/09/16 03:03:35;;;;;;;;;;;;;;;21.69;29.49;98322.63;4981819;28;1151;-77
2023/09/16 03:06:00;;;;;;;;;;;;;;;21.71;29.76;98320.16;4997945;28;1092;-77
2023/09/16 03:08:26;;;;;;;;;;;;;;;21.65;29.77;98327.56;5014429;28;1029;-77
2023/09/16 03:10:51;;;;;;;;;;;;;;;21.99;29.27;98330.03;4997826;28;1291;-77
2023/09/16 03:13:17;;;;;;;;;;;;;;;21.79;29.31;98327.25;5013918;28;1398;-77
2023/09/16 03:15:45;;;;;;;;;;;;;;;21.66;29.54;98329.16;4997825;28;1446;-77
2023/09/16 03:18:11;;;;;;;;;;;;;;;21.71;29.14;98337.16;4981319;28;1311;-76
2023/09/16 03:20:40;;;;;;;;;;;;;;;21.91;28.93;98328.59;4966103;28;1097;-78
2023/09/16 03:23:05;;;;;;;;;;;;;;;21.60;29.61;98330.91;4977891;28;1911;-77
2023/09/16 03:25:31;;;;;;;;;;;;;;;21.82;29.16;98326.38;4997631;28;1521;-77
2023/09/16 03:27:57;;;;;;;;;;;;;;;21.70;29.33;98335.53;4987457;28;1305;-77
2023/09/16 03:30:22;;;;;;;;;;;;;;;21.88;29.20;98335.16;4979971;28;1242;-77
2023/09/16 03:32:48;;;;;;;;;;;;;;;21.74;29.37;98335.47;4996492;28;1258;-77
2023/09/16 03:35:15;;;;;;;;;;;;;;;21.65;29.18;98350.19;5014085;28;1140;-77
2023/09/16 03:37:41;;;;;;;;;;;;;;;21.76;29.20;98345.13;4997870;28;1206;-77
2023/09/16 03:40:06;;;;;;;;;;;;;;;21.75;28.89;98346.34;4997601;28;1223;-78
2023/09/16 03:42:32;;;;;;;;;;;;;;;21.67;29.16;98347.75;5013874;28;1993;-78
2023/09/16 03:44:58;;;;;;;;;;;;;;;21.87;28.85;98353.41;4977669;28;1204;-77
2023/09/16 03:47:26;;;;;;;;;;;;;;;21.70;29.17;98352.53;4994174;28;1215;-78
2023/09/16 03:49:51;;;;;;;;;;;;;;;21.92;28.94;98349.25;4994043;28;1152;-78
2023/09/16 03:52:17;;;;;;;;;;;;;;;21.82;29.16;98353.91;4978073;28;1202;-76
2023/09/16 03:54:43;;;;;;;;;;;;;;;21.82;29.13;98349.03;4977725;28;1108;-77
2023/09/16 03:57:09;;;;;;;;;;;;;;;21.89;28.89;98352.94;4978078;28;1267;-76
2023/09/16 03:59:34;;;;;;;;;;;;;;;21.90;28.84;98343.22;4977879;28;1202;-77
2023/09/16 04:02:00;;;;;;;;;;;;;;;21.97;28.80;98345.91;4978121;28;1911;-81
2023/09/16 04:04:27;;;;;;;;;;;;;;;22.01;28.84;98349.44;4977705;28;1168;-77
2023/09/16 04:06:52;;;;;;;;;;;;;;;21.77;28.94;98352.38;4994777;28;1007;-77
2023/09/16 04:09:19;;;;;;;;;;;;;;;21.81;28.89;98353.13;4994306;28;950;-78
2023/09/16 04:11:44;;;;;;;;;;;;;;;21.88;28.90;98354.19;4977973;28;1289;-77
2023/09/16 04:14:10;;;;;;;;;;;;;;;22.11;28.76;98351.25;5010503;28;1112;-77
2023/09/16 04:16:35;;;;;;;;;;;;;;;22.03;28.89;98346.97;5035077;28;911;-77
2023/09/16 04:19:01;;;;;;;;;;;;;;;21.90;29.00;98354.53;5054706;28;948;-77
2023/09/16 04:21:26;;;;;;;;;;;;;;;21.70;29.01;98354.56;5054468;28;1973;-78
2023/09/16 04:23:52;;;;;;;;;;;;;;;21.81;29.01;98352.28;5036979;28;1317;-78
2023/09/16 04:26:18;;;;;;;;;;;;;;;21.75;28.85;98354.84;5058466;28;1003;-77
2023/09/16 04:28:46;;;;;;;;;;;;;;;21.81;29.18;98349.47;5040704;28;1213;-78
2023/09/16 04:31:12;;;;;;;;;;;;;;;21.76;29.24;98364.97;5040960;28;976;-77
2023/09/16 04:33:38;;;;;;;;;;;;;;;21.61;29.18;98355.16;5040539;28;1266;-78
2023/09/16 04:36:05;;;;;;;;;;;;;;;21.62;29.13;98351.09;5040725;28;1277;-78
2023/09/16 04:38:31;;;;;;;;;;;;;;;21.70;29.37;98351.72;5040470;28;1107;-78
2023/09/16 04:40:58;;;;;;;;;;;;;;;21.67;29.08;98353.41;5057326;28;1114;-77
2023/09/16 04:43:25;;;;;;;;;;;;;;;21.75;28.93;98352.00;5040323;28;1910;-78
2023/09/16 04:45:51;;;;;;;;;;;;;;;21.77;28.99;98352.38;5057094;28;1759;-77
2023/09/16 04:48:30;;;;;;;;;;;;;;;21.68;29.03;98346.50;5041914;28;1244;-77
2023/09/16 04:50:57;;;;;;;;;;;;;;;21.94;28.66;98350.38;5040396;28;1138;-77
2023/09/16 04:53:22;;;;;;;;;;;;;;;21.62;29.26;98348.25;5056980;28;899;-77
2023/09/16 04:55:48;;;;;;;;;;;;;;;21.66;28.98;98357.50;5056706;28;1085;-77
2023/09/16 04:58:13;;;;;;;;;;;;;;;21.63;28.99;98352.69;5040160;28;1107;-78
2023/09/16 05:00:39;;;;;;;;;;;;;;;21.67;28.96;98356.25;5055631;28;1246;-78
2023/09/16 05:03:06;;;;;;;;;;;;;;;21.71;29.31;98358.97;5041533;28;1913;-78
2023/09/16 05:05:32;;;;;;;;;;;;;;;21.81;29.07;98355.94;5057645;28;1372;-78
2023/09/16 05:07:58;;;;;;;;;;;;;;;21.72;29.08;98361.41;5074376;28;1226;-77
2023/09/16 05:10:24;;;;;;;;;;;;;;;21.79;29.10;98364.06;5040232;28;1038;-77
2023/09/16 05:12:49;;;;;;;;;;;;;;;21.94;28.55;98360.94;5039537;28;1248;-77
2023/09/16 05:15:15;;;;;;;;;;;;;;;21.89;28.88;98358.63;5023225;28;1143;-78
2023/09/16 05:17:41;;;;;;;;;;;;;;;21.50;29.76;98366.72;5039861;28;1123;-77
2023/09/16 05:20:07;;;;;;;;;;;;;;;21.85;28.97;98365.16;5039671;28;1341;-77
2023/09/16 05:22:33;;;;;;;;;;;;;;;21.88;28.81;98362.69;5007411;28;1989;-77
2023/09/16 05:25:00;;;;;;;;;;;;;;;21.83;29.09;98361.97;5023076;28;1142;-77
2023/09/16 05:27:25;;;;;;;;;;;;;;;21.68;29.48;98365.53;5019772;28;1131;-77
2023/09/16 05:29:56;;;;;;;;;;;;;;;21.77;29.38;98365.75;5019737;28;1343;-77
2023/09/16 05:32:22;;;;;;;;;;;;;;;21.61;29.39;98366.50;4999735;28;1273;-77
2023/09/16 05:34:48;;;;;;;;;;;;;;;21.62;29.59;98368.09;4999903;28;1128;-77
2023/09/16 05:37:14;;;;;;;;;;;;;;;21.92;29.29;98369.09;5014839;28;951;-78
2023/09/16 05:39:40;;;;;;;;;;;;;;;21.60;29.38;98367.72;4983531;28;1140;-77
2023/09/16 05:42:06;;;;;;;;;;;;;;;21.74;29.30;98370.25;4984226;28;1987;-77
2023/09/16 05:44:31;;;;;;;;;;;;;;;21.80;29.40;98371.31;4964186;28;1222;-77
2023/09/16 05:46:59;;;;;;;;;;;;;;;21.88;29.42;98374.81;4980457;28;1403;-77
2023/09/16 05:49:25;;;;;;;;;;;;;;;21.89;29.49;98369.94;4980148;28;1070;-77
2023/09/16 05:51:51;;;;;;;;;;;;;;;21.81;29.45;98375.78;4973463;28;1257;-77
2023/09/16 05:54:18;;;;;;;;;;;;;;;21.92;29.40;98374.75;4957709;28;1339;-77
2023/09/16 05:56:46;;;;;;;;;;;;;;;21.67;29.82;98387.41;4957586;28;1093;-78
2023/09/16 05:59:12;;;;;;;;;;;;;;;22.03;29.29;98386.63;4988932;28;1150;-77
2023/09/16 06:01:37;;;;;;;;;;;;;;;21.75;29.56;98388.84;4996300;28;1906;-78
2023/09/16 06:04:03;;;;;;;;;;;;;;;21.69;30.12;98382.09;5027932;28;1273;-77
2023/09/16 06:06:29;;;;;;;;;;;;;;;21.90;29.84;98394.19;5015404;28;1363;-77
2023/09/16 06:08:55;;;;;;;;;;;;;;;21.73;30.01;98396.97;4999373;28;999;-77
2023/09/16 06:11:22;;;;;;;;;;;;;;;21.78;29.94;98399.31;5015842;28;929;-77
2023/09/16 06:13:48;;;;;;;;;;;;;;;21.98;29.55;98398.50;4998706;28;1190;-78
2023/09/16 06:16:14;;;;;;;;;;;;;;;21.59;30.20;98405.75;4999427;28;1140;-77
2023/09/16 06:18:40;;;;;;;;;;;;;;;21.84;30.04;98406.03;4963346;28;1277;-77
2023/09/16 06:21:05;;;;;;;;;;;;;;;22.01;29.80;98411.75;4979679;28;1177;-77
2023/09/16 06:23:31;;;;;;;;;;;;;;;22.20;29.21;98408.13;5009528;28;1975;-78
2023/09/16 06:25:57;;;;;;;;;;;;;;;21.92;29.86;98417.25;5002743;28;1243;-77
2023/09/16 06:28:25;;;;;;;;;;;;;;;21.94;29.62;98418.38;4975800;28;1225;-77
2023/09/16 06:30:50;;;;;;;;;;;;;;;21.88;29.62;98416.50;4992341;28;1107;-78
2023/09/16 06:33:17;;;;;;;;;;;;;;;21.90;29.90;98412.00;4992267;28;1384;-78
2023/09/16 06:35:43;;;;;;;;;;;;;;;21.73;30.20;98419.63;4992539;28;1451;-78
2023/09/16 06:38:08;;;;;;;;;;;;;;;21.81;30.09;98423.09;4992204;28;1149;-77
2023/09/16 06:40:35;;;;;;;;;;;;;;;21.76;30.12;98435.78;4990978;28;993;-78
2023/09/16 06:43:01;;;;;;;;;;;;;;;21.88;30.12;98427.84;4978889;28;1918;-77
2023/09/16 06:45:28;;;;;;;;;;;;;;;21.84;30.07;98437.22;4979118;28;1121;-77
2023/09/16 06:47:55;;;;;;;;;;;;;;;21.76;30.33;98432.94;4994913;28;1044;-78
2023/09/16 06:50:20;;;;;;;;;;;;;;;21.77;30.03;98431.69;4979193;28;1251;-77
2023/09/16 06:52:46;;;;;;;;;;;;;;;21.89;30.16;98443.59;4995467;28;1011;-78
2023/09/16 06:55:11;;;;;;;;;;;;;;;22.11;29.74;98444.78;4997682;28;986;-77
2023/09/16 06:57:37;;;;;;;;;;;;;;;21.99;29.63;98448.25;5031455;28;1038;-77
2023/09/16 07:00:03;;;;;;;;;;;;;;;22.22;29.36;98450.19;5045900;28;994;-77
2023/09/16 07:02:28;;;;;;;;;;;;;;;22.06;29.99;98448.09;5055859;28;1914;-77
2023/09/16 07:04:55;;;;;;;;;;;;;;;22.20;29.67;98447.81;5072120;28;855;-77
2023/09/16 07:07:23;;;;;;;;;;;;;;;22.14;29.59;98449.56;5054160;28;1068;-77
2023/09/16 07:09:51;;;;;;;;;;;;;;;22.08;29.75;98442.78;5054125;28;932;-77
2023/09/16 07:12:17;;;;;;;;;;;;;;;22.00;29.83;98447.00;5037584;28;1048;-79
2023/09/16 07:14:43;;;;;;;;;;;;;;;22.17;29.63;98451.50;5054365;28;1012;-78
2023/09/16 07:17:08;;;;;;;;;;;;;;;22.06;29.76;98453.75;5054011;28;914;-77
2023/09/16 07:19:34;;;;;;;;;;;;;;;22.04;29.76;98456.22;5054121;28;1075;-78
2023/09/16 07:21:59;;;;;;;;;;;;;;;21.98;30.06;98458.00;5053769;28;1977;-77
2023/09/16 07:24:25;;;;;;;;;;;;;;;21.83;30.38;98455.44;5054396;28;959;-77
2023/09/16 07:26:50;;;;;;;;;;;;;;;21.74;30.55;98460.88;5054037;28;1215;-78
2023/09/16 07:29:17;;;;;;;;;;;;;;;22.06;29.77;98459.41;5053772;28;964;-77
2023/09/16 07:31:42;;;;;;;;;;;;;;;21.95;30.20;98465.31;5021076;28;1096;-77
2023/09/16 07:34:08;;;;;;;;;;;;;;;21.85;30.63;98472.78;5020936;28;1456;-77
2023/09/16 07:36:33;;;;;;;;;;;;;;;21.89;30.31;98480.44;5020831;28;1139;-77
2023/09/16 07:38:59;;;;;;;;;;;;;;;22.06;30.03;98471.56;5055946;28;1039;-78
2023/09/16 07:41:24;;;;;;;;;;;;;;;21.87;30.26;98477.25;5017665;28;1910;-77
2023/09/16 07:43:50;;;;;;;;;;;;;;;21.92;30.40;98482.41;5017309;28;1037;-78
2023/09/16 07:46:15;;;;;;;;;;;;;;;21.94;30.36;98482.75;5018030;28;1027;-77
2023/09/16 07:48:41;;;;;;;;;;;;;;;21.98;30.22;98478.63;5017038;28;1183;-77
2023/09/16 07:51:06;;;;;;;;;;;;;;;21.96;30.00;98483.09;5017181;28;1018;-77
2023/09/16 07:53:32;;;;;;;;;;;;;;;21.98;30.05;98480.66;5033884;28;997;-78
2023/09/16 07:55:57;;;;;;;;;;;;;;;22.14;29.85;98488.47;5017714;28;1129;-77
2023/09/16 07:58:23;;;;;;;;;;;;;;;22.24;29.50;98484.59;5017488;28;959;-78
2023/09/16 08:00:49;;;;;;;;;;;;;;;22.18;30.00;98494.84;4996778;28;1120;-77
2023/09/16 08:03:14;;;;;;;;;;;;;;;22.20;29.91;98487.50;5014032;28;2019;-77
2023/09/16 08:05:40;;;;;;;;;;;;;;;22.22;29.76;98487.06;5013725;28;956;-78
2023/09/16 08:08:05;;;;;;;;;;;;;;;22.30;29.85;98492.13;4997619;28;971;-77
2023/09/16 08:10:31;;;;;;;;;;;;;;;21.92;30.37;98493.75;4997531;28;1027;-77
2023/09/16 08:12:56;;;;;;;;;;;;;;;22.05;30.31;98486.97;5025960;28;1289;-77
2023/09/16 08:15:22;;;;;;;;;;;;;;;21.98;30.12;98497.66;5053438;28;1195;-77
2023/09/16 08:17:47;;;;;;;;;;;;;;;22.09;30.33;98489.72;5036874;28;1065;-77
2023/09/16 08:20:13;;;;;;;;;;;;;;;21.91;30.63;98492.13;5053636;28;963;-78
2023/09/16 08:22:38;;;;;;;;;;;;;;;22.06;30.39;98490.59;5036504;28;1910;-77
2023/09/16 08:25:04;;;;;;;;;;;;;;;22.06;30.36;98493.44;5036182;28;2353;-78
2023/09/16 08:27:30;;;;;;;;;;;;;;;22.18;30.25;98489.97;5033311;28;1013;-76
2023/09/16 08:29:55;;;;;;;;;;;;;;;22.15;30.06;98499.34;5016904;28;1204;-77
2023/09/16 08:32:23;;;;;;;;;;;;;;;22.26;29.94;98497.06;5020060;28;1118;-78
2023/09/16 08:34:51;;;;;;;;;;;;;;;22.21;30.16;98489.09;5013624;28;1189;-77
2023/09/16 08:37:17;;;;;;;;;;;;;;;21.99;30.65;98493.59;4997340;28;982;-77
2023/09/16 08:39:42;;;;;;;;;;;;;;;22.33;29.79;98491.28;4997320;28;1028;-77
2023/09/16 08:42:26;;;;;;;;;;;;;;;22.34;29.93;98492.88;4997350;28;1914;-77
2023/09/16 08:44:52;;;;;;;;;;;;;;;21.92;30.82;98505.06;4996967;28;1014;-77
2023/09/16 08:47:27;;;;;;;;;;;;;;;22.02;30.59;98499.19;4996985;28;935;-78
2023/09/16 08:49:52;;;;;;;;;;;;;;;22.12;30.42;98499.41;4977426;28;2027;-77
2023/09/16 08:52:18;;;;;;;;;;;;;;;22.36;29.86;98495.25;4961565;28;1181;-76
2023/09/16 08:54:43;;;;;;;;;;;;;;;22.15;30.11;98496.50;4977422;28;900;-77
2023/09/16 08:57:09;;;;;;;;;;;;;;;22.21;30.16;98500.44;4977796;28;953;-77
2023/09/16 08:59:36;;;;;;;;;;;;;;;22.07;30.34;98495.03;4976105;28;956;-78
2023/09/16 09:02:01;;;;;;;;;;;;;;;22.09;30.29;98490.53;4961812;28;1907;-77
2023/09/16 09:04:27;;;;;;;;;;;;;;;22.20;30.14;98504.50;4993640;28;964;-77
2023/09/16 09:06:53;;;;;;;;;;;;;;;22.08;30.48;98496.63;5014655;28;1196;-78
2023/09/16 09:09:18;;;;;;;;;;;;;;;22.08;30.58;98490.97;5032736;28;1023;-78
2023/09/16 09:11:44;;;;;;;;;;;;;;;22.09;30.76;98492.56;5034374;28;1059;-77
2023/09/16 09:14:10;;;;;;;;;;;;;;;22.34;29.83;98492.88;5036479;28;1036;-77
2023/09/16 09:16:36;;;;;;;;;;;;;;;22.29;30.03;98501.09;5036853;28;1078;-77
2023/09/16 09:19:01;;;;;;;;;;;;;;;22.31;30.30;98488.06;5036557;28;1187;-77
2023/09/16 09:21:27;;;;;;;;;;;;;;;22.01;30.44;98488.25;5051489;28;1919;-78
2023/09/16 09:23:52;;;;;;;;;;;;;;;22.20;30.41;98489.53;5056547;28;1270;-78
2023/09/16 09:26:18;;;;;;;;;;;;;;;22.03;30.43;98472.44;5056494;28;944;-77
2023/09/16 09:28:47;;;;;;;;;;;;;;;22.15;30.50;98488.00;5056133;28;1135;-78
2023/09/16 09:31:12;;;;;;;;;;;;;;;22.14;30.26;98489.25;5057682;28;916;-78
2023/09/16 09:33:38;;;;;;;;;;;;;;;22.12;30.53;98490.91;5057241;28;1286;-78
2023/09/16 09:36:14;;;;;;;;;;;;;;;22.25;30.34;98495.50;5040584;28;990;-77
2023/09/16 09:38:40;;;;;;;;;;;;;;;22.34;30.38;98477.91;5057252;28;1195;-78
2023/09/16 09:41:06;;;;;;;;;;;;;;;22.19;30.36;98485.09;5024246;28;910;-77
2023/09/16 09:43:32;;;;;;;;;;;;;;;22.08;30.75;98471.13;5058027;28;1976;-77
2023/09/16 09:45:57;;;;;;;;;;;;;;;21.95;30.75;98479.47;5057251;28;1041;-77
2023/09/16 09:48:23;;;;;;;;;;;;;;;22.16;30.73;98475.44;5040203;28;1003;-78
2023/09/16 09:50:49;;;;;;;;;;;;;;;22.35;30.28;98480.28;5058252;28;1031;-77
2023/09/16 09:53:15;;;;;;;;;;;;;;;22.32;30.41;98478.31;5056495;28;861;-77
2023/09/16 09:55:40;;;;;;;;;;;;;;;21.95;30.82;98476.66;5058019;28;932;-78
2023/09/16 09:58:06;;;;;;;;;;;;;;;22.02;30.75;98476.53;5056983;28;877;-77
2023/09/16 10:00:31;;;;;;;;;;;;;;;22.09;30.54;98476.34;5056542;28;895;-77
2023/09/16 10:02:59;;;;;;;;;;;;;;;22.10;30.53;98472.31;5057912;28;1981;-77
2023/09/16 10:05:24;;;;;;;;;;;;;;;22.34;30.28;98481.53;5056702;28;860;-78
2023/09/16 10:07:51;;;;;;;;;;;;;;;22.27;30.30;98481.66;5040330;28;1196;-77
2023/09/16 10:10:20;;;;;;;;;;;;;;;22.26;30.57;98485.75;5038699;28;1336;-77
2023/09/16 10:12:46;;;;;;;;;;;;;;;21.93;31.05;98484.00;5022311;28;1017;-78
2023/09/16 10:15:11;;;;;;;;;;;;;;;22.02;30.93;98487.03;5036831;28;1582;-78
2023/09/16 10:17:37;;;;;;;;;;;;;;;22.10;30.82;98471.50;5018838;28;1061;-77
2023/09/16 10:20:03;;;;;;;;;;;;;;;22.21;30.84;98480.59;5018934;28;1062;-77
2023/09/16 10:22:29;;;;;;;;;;;;;;;22.23;30.77;98478.13;5034945;28;1906;-78
2023/09/16 10:24:54;;;;;;;;;;;;;;;22.48;30.07;98468.25;4998812;28;1302;-77
2023/09/16 10:27:22;;;;;;;;;;;;;;;22.31;30.43;98476.72;4999081;28;1149;-78
2023/09/16 10:29:48;;;;;;;;;;;;;;;22.51;29.89;98481.56;5015130;28;1089;-78
2023/09/16 10:32:13;;;;;;;;;;;;;;;22.23;30.75;98480.16;4995622;28;905;-78
2023/09/16 10:34:39;;;;;;;;;;;;;;;22.24;30.31;98474.06;4995728;28;1058;-78
2023/09/16 10:37:04;;;;;;;;;;;;;;;22.06;31.10;98476.41;4995159;28;1150;-77
2023/09/16 10:39:30;;;;;;;;;;;;;;;22.06;30.76;98470.75;4996032;28;926;-77
2023/09/16 10:41:55;;;;;;;;;;;;;;;22.24;30.50;98471.22;4994113;28;1981;-77
2023/09/16 10:44:21;;;;;;;;;;;;;;;22.05;31.00;98457.81;4979035;28;1587;-77
2023/09/16 10:46:47;;;;;;;;;;;;;;;22.06;31.11;98459.41;4979122;28;944;-78
2023/09/16 10:49:12;;;;;;;;;;;;;;;22.19;30.78;98462.44;4995348;28;991;-77
2023/09/16 10:51:39;;;;;;;;;;;;;;;22.36;30.63;98459.19;4979269;28;945;-77
2023/09/16 10:54:17;;;;;;;;;;;;;;;22.49;30.25;98461.38;4995103;28;898;-78
2023/09/16 10:56:43;;;;;;;;;;;;;;;22.32;30.48;98461.31;4995254;28;916;-78
2023/09/16 10:59:10;;;;;;;;;;;;;;;22.35;30.50;98456.81;4995645;28;943;-78
2023/09/16 11:01:48;;;;;;;;;;;;;;;22.29;30.63;98450.06;5014545;28;1910;-77
2023/09/16 11:04:17;;;;;;;;;;;;;;;22.15;30.82;98448.31;5014778;28;978;-78
2023/09/16 11:06:47;;;;;;;;;;;;;;;22.29;30.79;98450.06;5014883;28;1213;-78
2023/09/16 11:09:13;;;;;;;;;;;;;;;22.27;30.85;98438.34;5020705;28;972;-77
2023/09/16 11:11:39;;;;;;;;;;;;;;;22.24;30.77;98437.19;5050890;28;1068;-78
2023/09/16 11:14:04;;;;;;;;;;;;;;;22.00;31.07;98449.84;5050845;28;1028;-77
2023/09/16 11:16:33;;;;;;;;;;;;;;;22.27;30.77;98441.19;5017483;28;1371;-77
2023/09/16 11:18:59;;;;;;;;;;;;;;;22.32;30.75;98449.16;5050958;28;962;-77
2023/09/16 11:21:25;;;;;;;;;;;;;;;22.34;30.62;98441.84;5057737;28;958;-77
2023/09/16 11:23:50;;;;;;;;;;;;;;;22.40;30.59;98444.94;5037470;28;1036;-78
2023/09/16 11:26:16;;;;;;;;;;;;;;;22.07;31.16;98438.34;5037532;28;1048;-77
2023/09/16 11:28:42;;;;;;;;;;;;;;;22.10;30.95;98437.47;5037163;28;963;-78
2023/09/16 11:31:07;;;;;;;;;;;;;;;22.21;30.76;98432.41;5037501;28;1046;-77
2023/09/16 11:33:33;;;;;;;;;;;;;;;22.25;30.88;98433.13;5018691;28;948;-77
2023/09/16 11:36:08;;;;;;;;;;;;;;;22.34;30.59;98439.00;5034448;28;1415;-78
2023/09/16 11:38:34;;;;;;;;;;;;;;;21.91;31.25;98429.78;5036481;28;945;-78
2023/09/16 11:41:09;;;;;;;;;;;;;;;22.00;31.39;98427.97;5036256;28;927;-77
2023/09/16 11:43:35;;;;;;;;;;;;;;;22.30;30.62;98424.09;5034887;28;1902;-77
2023/09/16 11:46:01;;;;;;;;;;;;;;;22.28;30.68;98429.41;5018940;28;1010;-77
2023/09/16 11:48:27;;;;;;;;;;;;;;;22.28;30.74;98426.59;5035120;28;1089;-78
2023/09/16 11:50:52;;;;;;;;;;;;;;;22.16;31.01;98430.09;5036205;28;1117;-78
2023/09/16 11:53:18;;;;;;;;;;;;;;;22.24;30.64;98416.56;5036572;28;966;-77
2023/09/16 11:55:44;;;;;;;;;;;;;;;22.23;30.55;98415.78;5036315;28;1064;-77
2023/09/16 11:58:10;;;;;;;;;;;;;;;22.51;30.46;98422.00;5018729;28;1537;-78
2023/09/16 12:00:36;;;;;;;;;;;;;;;22.33;30.54;98428.91;5018729;28;969;-78
2023/09/16 12:03:02;;;;;;;;;;;;;;;22.33;30.81;98423.22;5018524;28;1907;-77
2023/09/16 12:05:28;;;;;;;;;;;;;;;22.14;31.23;98426.09;5035787;28;1021;-77
2023/09/16 12:07:54;;;;;;;;;;;;;;;22.24;31.02;98419.41;5034523;28;908;-77
2023/09/16 12:10:19;;;;;;;;;;;;;;;22.23;30.99;98418.59;5034862;28;1114;-78
2023/09/16 12:12:48;;;;;;;;;;;;;;;22.14;31.06;98424.06;5034563;28;1021;-78
2023/09/16 12:15:13;;;;;;;;;;;;;;;22.43;30.55;98420.56;5031704;28;1018;-77
2023/09/16 12:17:39;;;;;;;;;;;;;;;22.13;31.10;98419.63;5034881;28;1237;-78
2023/09/16 12:20:05;;;;;;;;;;;;;;;22.09;30.96;98427.38;5035027;28;1240;-77
2023/09/16 12:22:31;;;;;;;;;;;;;;;22.30;30.77;98426.13;5035906;28;1894;-78
2023/09/16 12:24:56;;;;;;;;;;;;;;;22.36;30.67;98433.69;5034599;28;1242;-78
2023/09/16 12:27:22;;;;;;;;;;;;;;;22.53;30.21;98430.84;5034792;28;1259;-78
2023/09/16 12:29:47;;;;;;;;;;;;;;;22.52;30.17;98432.09;5034529;28;932;-78
2023/09/16 12:32:14;;;;;;;;;;;;;;;22.61;29.92;98437.97;5033398;28;1014;-78
2023/09/16 12:34:40;;;;;;;;;;;;;;;22.44;30.63;98427.84;5018224;28;900;-78
2023/09/16 12:37:06;;;;;;;;;;;;;;;22.48;30.49;98422.88;5051257;28;1243;-78
2023/09/16 12:39:33;;;;;;;;;;;;;;;22.38;30.65;98426.75;5034594;28;1034;-77
2023/09/16 12:41:59;;;;;;;;;;;;;;;22.32;30.83;98438.63;5033266;28;1902;-77
2023/09/16 12:44:25;;;;;;;;;;;;;;;22.28;30.94;98442.81;5017034;28;1115;-78
2023/09/16 12:46:50;;;;;;;;;;;;;;;22.21;30.79;98438.06;5035345;28;1002;-77
2023/09/16 12:49:16;;;;;;;;;;;;;;;22.34;30.29;98446.72;5036901;28;950;-77
2023/09/16 12:51:41;;;;;;;;;;;;;;;22.33;30.59;98447.94;5020480;28;940;-78
2023/09/16 12:54:07;;;;;;;;;;;;;;;22.29;30.42;98433.84;5020643;28;955;-78